Terminal Aerodrome Forecast
Issued by NWS

Home | Current Version | Previous Version | Text Only | Print | Product List | Glossary On
Versions: 1 2 3 4 5 6 7 8 9 10 11 12 13 14
000
FTUS46 KHNX 250537
TAFMCE
TAF
KMCE 250537Z 2506/2606 32007KT P6SM SCT100
     FM251000 VRB04KT P6SM OVC090
     FM251200 VRB04KT P6SM -SHRA OVC050
     FM252100 32007KT P6SM BKN050=

USA.gov is the U.S. government's official web portal to all federal, state and local government web resources and services.